createdAt,value
2023-06-23T00:00:21.910Z,17.52
2023-06-23T00:03:09.571Z,17.52
2023-06-23T00:05:39.319Z,17.49
2023-06-23T00:08:06.884Z,17.51
2023-06-23T00:10:34.720Z,17.62
2023-06-23T00:13:03.969Z,17.53
2023-06-23T00:15:32.125Z,17.60
2023-06-23T00:18:01.733Z,17.49
2023-06-23T00:20:29.661Z,17.52
2023-06-23T00:22:57.127Z,17.46
2023-06-23T00:25:24.990Z,17.47
2023-06-23T00:27:52.532Z,17.43
2023-06-23T00:30:20.318Z,17.47
2023-06-23T00:32:47.876Z,17.40
2023-06-23T00:35:15.840Z,17.45
2023-06-23T00:37:44.882Z,17.59
2023-06-23T00:40:13.034Z,17.78
2023-06-23T00:42:54.116Z,17.69
2023-06-23T00:45:25.515Z,17.75
2023-06-23T00:47:54.087Z,17.85
2023-06-23T00:50:24.739Z,17.79
2023-06-23T00:52:54.322Z,17.84
2023-06-23T00:55:24.474Z,17.72
2023-06-23T00:57:52.754Z,17.57
2023-06-23T01:00:21.179Z,17.56
2023-06-23T01:03:03.821Z,17.60
2023-06-23T01:05:38.766Z,17.63
2023-06-23T01:08:32.461Z,17.72
2023-06-23T01:11:10.820Z,17.80
2023-06-23T01:14:00.341Z,17.92
2023-06-23T01:16:35.688Z,18.04
2023-06-23T01:19:34.306Z,18.04
2023-06-23T01:22:09.926Z,17.88
2023-06-23T01:24:58.864Z,17.81
2023-06-23T01:27:37.455Z,17.71
2023-06-23T01:30:08.992Z,17.73
2023-06-23T01:32:47.071Z,17.65
2023-06-23T01:35:22.880Z,17.55
2023-06-23T01:37:54.549Z,17.55
2023-06-23T01:40:24.765Z,17.50
2023-06-23T01:43:01.243Z,17.48
2023-06-23T01:45:29.089Z,17.49
2023-06-23T01:48:02.630Z,17.41
2023-06-23T01:50:32.536Z,17.32
2023-06-23T01:53:03.042Z,17.32
2023-06-23T01:55:32.960Z,17.33
2023-06-23T01:58:03.162Z,17.38
2023-06-23T02:00:32.102Z,17.34
2023-06-23T02:03:03.106Z,17.42
2023-06-23T02:05:33.680Z,17.45
2023-06-23T02:08:03.307Z,17.52
2023-06-23T02:10:31.885Z,17.51
2023-06-23T02:13:01.734Z,17.55
2023-06-23T02:15:30.959Z,17.68
2023-06-23T02:18:01.275Z,17.65
2023-06-23T02:20:31.836Z,17.65
2023-06-23T02:23:01.757Z,17.77
2023-06-23T02:25:31.070Z,17.90
2023-06-23T02:28:01.687Z,18.08
2023-06-23T02:30:30.875Z,18.22
2023-06-23T02:32:58.774Z,18.27
2023-06-23T02:35:26.591Z,18.37
2023-06-23T02:38:00.080Z,18.46
2023-06-23T02:40:28.952Z,18.59
2023-06-23T02:43:11.641Z,18.49
2023-06-23T02:45:43.751Z,18.50
2023-06-23T02:48:19.871Z,18.55
2023-06-23T02:50:49.681Z,18.56
2023-06-23T02:53:28.308Z,18.56
2023-06-23T02:56:08.347Z,18.41
2023-06-23T02:58:37.573Z,18.32
2023-06-23T03:01:10.389Z,18.42
2023-06-23T03:03:40.481Z,18.43
2023-06-23T03:06:08.089Z,18.54
2023-06-23T03:08:36.498Z,18.46
2023-06-23T03:11:04.077Z,18.43
2023-06-23T03:13:31.879Z,18.64
2023-06-23T03:16:03.455Z,18.73
2023-06-23T03:18:35.588Z,18.88
2023-06-23T03:21:06.290Z,18.97
2023-06-23T03:23:39.154Z,19.05
2023-06-23T03:26:10.101Z,19.07
2023-06-23T03:28:42.114Z,19.16
2023-06-23T03:31:13.955Z,18.97
2023-06-23T03:33:44.470Z,19.36
2023-06-23T03:36:20.212Z,19.53
2023-06-23T03:39:22.295Z,20.06
2023-06-23T03:41:51.322Z,20.35
2023-06-23T03:44:27.901Z,20.67
2023-06-23T03:47:00.616Z,21.14
2023-06-23T03:49:34.525Z,21.54
2023-06-23T03:52:05.714Z,21.59
2023-06-23T03:54:34.598Z,21.54
2023-06-23T03:57:05.958Z,22.44
2023-06-23T03:59:35.617Z,23.60
2023-06-23T04:02:04.232Z,23.60
2023-06-23T04:04:33.867Z,23.41
2023-06-23T04:07:02.826Z,22.76
2023-06-23T04:09:33.348Z,22.28
2023-06-23T04:12:02.440Z,22.07
2023-06-23T04:14:32.312Z,22.32
2023-06-23T04:17:02.319Z,22.32
2023-06-23T04:19:32.195Z,22.37
2023-06-23T04:22:01.659Z,22.18
2023-06-23T04:24:29.864Z,22.35
2023-06-23T04:26:58.905Z,22.44
2023-06-23T04:29:28.147Z,23.00
2023-06-23T04:31:56.782Z,23.46
2023-06-23T04:34:24.933Z,22.55
2023-06-23T04:37:02.489Z,21.66
2023-06-23T04:39:37.837Z,22.01
2023-06-23T04:42:09.338Z,22.41
2023-06-23T04:44:49.849Z,22.38
2023-06-23T04:47:21.623Z,22.66
2023-06-23T04:50:02.180Z,21.92
2023-06-23T04:52:32.620Z,21.78
2023-06-23T04:55:04.184Z,21.22
2023-06-23T04:57:35.694Z,21.22
2023-06-23T05:00:08.700Z,21.21
2023-06-23T05:02:38.515Z,20.43
2023-06-23T05:05:08.650Z,20.42
2023-06-23T05:07:38.807Z,20.58
2023-06-23T05:10:08.013Z,19.88
2023-06-23T05:12:39.145Z,19.32
2023-06-23T05:15:09.449Z,19.40
2023-06-23T05:17:39.972Z,19.89
2023-06-23T05:20:11.167Z,19.79
2023-06-23T05:22:40.635Z,19.81
2023-06-23T05:25:10.233Z,19.59
2023-06-23T05:27:42.202Z,19.74
2023-06-23T05:30:11.720Z,20.34
2023-06-23T05:32:41.896Z,19.89
2023-06-23T05:35:11.918Z,19.73
2023-06-23T05:37:42.092Z,19.50
2023-06-23T05:40:13.902Z,19.35
2023-06-23T05:42:41.969Z,20.13
2023-06-23T05:45:11.522Z,20.01
2023-06-23T05:48:08.187Z,20.62
2023-06-23T05:50:38.764Z,20.49
2023-06-23T05:53:13.657Z,20.57
2023-06-23T05:55:45.059Z,20.20
2023-06-23T05:58:14.907Z,19.93
2023-06-23T06:00:54.969Z,20.17
2023-06-23T06:03:27.567Z,20.54
2023-06-23T06:05:57.936Z,20.21
2023-06-23T06:08:27.780Z,20.35
2023-06-23T06:10:58.142Z,19.90
2023-06-23T06:13:26.051Z,20.37
2023-06-23T06:15:56.533Z,20.51
2023-06-23T06:18:25.944Z,20.91
2023-06-23T06:20:56.059Z,20.76
2023-06-23T06:23:26.387Z,20.25
2023-06-23T06:25:56.221Z,20.13
2023-06-23T06:28:26.604Z,20.43
2023-06-23T06:30:57.811Z,21.02
2023-06-23T06:33:28.344Z,21.64
2023-06-23T06:35:58.722Z,21.99
2023-06-23T06:38:30.555Z,22.33
2023-06-23T06:40:59.333Z,22.34
2023-06-23T06:43:26.926Z,22.65
2023-06-23T06:45:55.637Z,22.29
2023-06-23T06:48:27.174Z,23.16
2023-06-23T06:50:56.755Z,23.58
2023-06-23T06:53:26.264Z,23.75
2023-06-23T06:55:54.955Z,23.31
2023-06-23T06:58:23.092Z,22.95
2023-06-23T07:00:51.033Z,22.76
2023-06-23T07:03:18.838Z,22.60
2023-06-23T07:05:46.847Z,23.39
2023-06-23T07:08:14.455Z,23.61
2023-06-23T07:10:42.485Z,23.66
2023-06-23T07:13:10.914Z,23.23
2023-06-23T07:15:38.826Z,23.17
2023-06-23T07:18:06.495Z,23.44
2023-06-23T07:20:34.433Z,23.87
2023-06-23T07:23:02.441Z,23.71
2023-06-23T07:25:30.181Z,23.51
2023-06-23T07:27:57.685Z,23.58
2023-06-23T07:30:25.699Z,23.90
2023-06-23T07:32:53.609Z,23.67
2023-06-23T07:35:21.549Z,23.65
2023-06-23T07:37:49.081Z,24.22
2023-06-23T07:40:17.080Z,24.44
2023-06-23T07:42:44.653Z,24.74
2023-06-23T07:45:12.547Z,24.89
2023-06-23T07:47:40.304Z,24.50
2023-06-23T07:50:09.063Z,24.30
2023-06-23T07:52:36.705Z,24.29
2023-06-23T07:55:05.093Z,23.93
2023-06-23T07:57:32.673Z,23.84
2023-06-23T08:00:00.529Z,23.65
2023-06-23T08:02:28.211Z,23.57
2023-06-23T08:04:56.152Z,23.35
2023-06-23T08:07:23.737Z,23.15
2023-06-23T08:09:51.545Z,23.10
2023-06-23T08:12:19.007Z,22.96
2023-06-23T08:14:47.014Z,22.91
2023-06-23T08:17:14.626Z,22.84
2023-06-23T08:19:43.051Z,22.97
2023-06-23T08:22:10.887Z,22.96
2023-06-23T08:24:38.752Z,22.63
2023-06-23T08:27:07.898Z,22.83
2023-06-23T08:29:38.514Z,22.82
2023-06-23T08:32:07.197Z,22.65
2023-06-23T08:34:34.989Z,22.75
2023-06-23T08:37:02.510Z,22.79
2023-06-23T08:39:30.281Z,23.02
2023-06-23T08:42:00.167Z,23.17
2023-06-23T08:44:33.885Z,23.23
2023-06-23T08:47:07.160Z,22.95
2023-06-23T08:49:39.856Z,23.18
2023-06-23T08:52:08.271Z,22.85
2023-06-23T08:54:37.070Z,22.77
2023-06-23T08:57:05.656Z,22.61
2023-06-23T08:59:33.436Z,22.19
2023-06-23T09:02:01.004Z,21.71
2023-06-23T09:04:28.959Z,22.17
2023-06-23T09:06:56.864Z,22.38
2023-06-23T09:09:24.731Z,22.11
2023-06-23T09:11:53.877Z,22.08
2023-06-23T09:14:23.182Z,21.56
2023-06-23T09:16:55.283Z,21.91
2023-06-23T09:19:24.726Z,22.40
2023-06-23T09:21:53.194Z,22.68
2023-06-23T09:24:21.174Z,22.73
2023-06-23T09:26:54.021Z,22.65
2023-06-23T09:29:25.055Z,22.73
2023-06-23T09:31:54.149Z,22.65
2023-06-23T09:34:27.436Z,22.74
2023-06-23T09:37:06.256Z,22.81
2023-06-23T09:39:38.544Z,22.78
2023-06-23T09:42:13.430Z,22.70
2023-06-23T09:44:43.956Z,22.61
2023-06-23T09:47:11.469Z,22.50
2023-06-23T09:49:40.910Z,22.37
2023-06-23T09:52:10.646Z,22.12
2023-06-23T09:54:41.014Z,21.87
2023-06-23T09:57:16.766Z,21.70
2023-06-23T09:59:47.318Z,21.66
2023-06-23T10:02:28.182Z,21.63
2023-06-23T10:05:04.729Z,21.64
2023-06-23T10:07:34.832Z,21.55
2023-06-23T10:12:41.721Z,21.56
2023-06-23T10:15:11.456Z,21.56
2023-06-23T10:17:39.633Z,21.41
2023-06-23T10:20:08.423Z,21.28
2023-06-23T10:22:38.264Z,21.43
2023-06-23T10:25:10.613Z,20.43
2023-06-23T10:27:41.734Z,20.79
2023-06-23T10:30:11.930Z,21.14
2023-06-23T10:32:51.418Z,21.40
2023-06-23T10:35:23.404Z,21.39
2023-06-23T10:38:08.086Z,21.49
2023-06-23T10:40:40.778Z,21.61
2023-06-23T10:43:08.601Z,21.65
2023-06-23T10:45:37.008Z,21.92
2023-06-23T10:48:05.190Z,21.89
2023-06-23T10:50:33.279Z,22.22
2023-06-23T10:53:33.866Z,22.49
2023-06-23T10:56:08.357Z,22.37
2023-06-23T10:58:51.644Z,22.53
2023-06-23T11:01:19.602Z,22.51
2023-06-23T11:03:52.486Z,22.78
2023-06-23T11:06:35.862Z,22.98
2023-06-23T11:09:03.663Z,23.16
2023-06-23T11:11:35.562Z,23.24
2023-06-23T11:14:03.555Z,23.52
2023-06-23T11:16:35.974Z,23.41
2023-06-23T11:19:03.970Z,23.58
2023-06-23T11:21:35.351Z,23.98
2023-06-23T11:24:13.213Z,24.37
2023-06-23T11:27:04.404Z,24.82
2023-06-23T11:29:33.396Z,24.98
2023-06-23T11:32:06.313Z,24.91
2023-06-23T11:34:54.231Z,24.88
2023-06-23T11:37:23.643Z,24.55
2023-06-23T11:39:54.721Z,24.63
2023-06-23T11:42:22.793Z,24.74
2023-06-23T11:44:50.748Z,24.78
2023-06-23T11:47:30.815Z,25.18
2023-06-23T11:50:04.949Z,25.08
2023-06-23T11:52:33.099Z,24.97
2023-06-23T11:55:00.911Z,24.98
2023-06-23T11:57:29.018Z,24.99
2023-06-23T11:59:56.645Z,25.17
2023-06-23T12:02:24.626Z,24.71
2023-06-23T12:04:52.261Z,25.49
2023-06-23T12:07:21.027Z,26.17
2023-06-23T12:09:48.647Z,26.27
2023-06-23T12:12:17.561Z,26.41
2023-06-23T12:14:45.712Z,26.82
2023-06-23T12:17:14.605Z,27.04
2023-06-23T12:19:45.937Z,27.10
2023-06-23T12:22:16.932Z,27.43
2023-06-23T12:24:45.146Z,27.08
2023-06-23T12:27:13.278Z,27.08
2023-06-23T12:29:40.770Z,26.72
2023-06-23T12:32:09.383Z,27.12
2023-06-23T12:34:43.102Z,26.90
2023-06-23T12:37:16.982Z,27.48
2023-06-23T12:39:56.242Z,27.81
2023-06-23T12:42:24.386Z,27.61
2023-06-23T12:44:52.296Z,27.87
2023-06-23T12:47:20.615Z,28.03
2023-06-23T12:49:49.318Z,28.02
2023-06-23T12:52:17.305Z,28.22
2023-06-23T12:54:45.217Z,28.02
2023-06-23T12:57:13.444Z,27.71
2023-06-23T12:59:41.456Z,27.78
2023-06-23T13:02:10.087Z,27.30
2023-06-23T13:04:37.761Z,27.17
2023-06-23T13:07:06.610Z,27.39
2023-06-23T13:09:34.204Z,27.03
2023-06-23T13:12:01.969Z,27.02
2023-06-23T13:14:29.567Z,26.96
2023-06-23T13:16:57.431Z,26.61
2023-06-23T13:19:24.900Z,26.84
2023-06-23T13:21:53.145Z,26.88
2023-06-23T13:24:20.752Z,27.10
2023-06-23T13:26:49.557Z,26.99
2023-06-23T13:29:18.310Z,27.03
2023-06-23T13:31:46.476Z,27.21
2023-06-23T13:34:14.249Z,27.09
2023-06-23T13:36:42.226Z,27.02
2023-06-23T13:39:09.696Z,27.03
2023-06-23T13:41:37.747Z,27.26
2023-06-23T13:44:05.332Z,27.38
2023-06-23T13:46:33.925Z,27.37
2023-06-23T13:49:01.440Z,27.07
2023-06-23T13:51:30.164Z,26.98
2023-06-23T13:53:57.894Z,26.96
2023-06-23T13:56:25.906Z,26.73
2023-06-23T13:58:53.411Z,27.04
2023-06-23T14:01:21.323Z,27.45
2023-06-23T14:03:53.057Z,27.50
2023-06-23T14:06:21.214Z,27.26
2023-06-23T14:08:49.836Z,27.52
2023-06-23T14:11:17.696Z,27.63
2023-06-23T14:13:45.349Z,27.50
2023-06-23T14:16:16.896Z,27.19
2023-06-23T14:18:45.187Z,27.29
2023-06-23T14:21:14.089Z,26.92
2023-06-23T14:23:41.606Z,27.17
2023-06-23T14:26:09.696Z,27.27
2023-06-23T14:28:37.252Z,27.42
2023-06-23T14:31:05.090Z,27.36
2023-06-23T14:33:32.786Z,27.41
2023-06-23T14:36:00.764Z,27.73
2023-06-23T14:38:28.998Z,27.84
2023-06-23T14:40:57.905Z,27.54
2023-06-23T14:43:25.587Z,27.47
2023-06-23T14:45:53.954Z,27.52
2023-06-23T14:48:22.113Z,27.31
2023-06-23T14:50:50.337Z,26.40
2023-06-23T14:53:18.050Z,26.27
2023-06-23T14:55:45.806Z,25.78
2023-06-23T14:58:13.262Z,25.32
2023-06-23T15:00:41.072Z,25.52
2023-06-23T15:03:10.955Z,25.80
2023-06-23T15:05:38.982Z,25.94
2023-06-23T15:08:06.572Z,25.99
2023-06-23T15:10:34.924Z,26.36
2023-06-23T15:13:02.623Z,26.41
2023-06-23T15:15:30.828Z,26.03
2023-06-23T15:17:58.914Z,25.23
2023-06-23T15:20:27.535Z,24.98
2023-06-23T15:22:55.708Z,24.89
2023-06-23T15:25:23.632Z,24.82
2023-06-23T15:27:51.165Z,23.90
2023-06-23T15:30:19.180Z,23.87
2023-06-23T15:32:47.495Z,23.85
2023-06-23T15:35:15.700Z,23.73
2023-06-23T15:37:43.627Z,23.71
2023-06-23T15:40:13.102Z,23.55
2023-06-23T15:42:40.856Z,23.59
2023-06-23T15:45:09.298Z,23.49
2023-06-23T15:47:37.008Z,23.46
2023-06-23T15:50:05.372Z,23.44
2023-06-23T15:52:33.077Z,23.49
2023-06-23T15:55:00.953Z,23.63
2023-06-23T15:57:28.603Z,23.85
2023-06-23T15:59:56.483Z,23.72
2023-06-23T16:02:26.866Z,23.64
2023-06-23T16:04:55.112Z,23.36
2023-06-23T16:07:23.139Z,23.49
2023-06-23T16:09:51.220Z,23.61
2023-06-23T16:12:18.723Z,23.30
2023-06-23T16:14:46.586Z,23.36
2023-06-23T16:17:14.212Z,23.66
2023-06-23T16:19:42.077Z,23.42
2023-06-23T16:22:09.633Z,23.37
2023-06-23T16:24:37.493Z,23.41
2023-06-23T16:27:05.165Z,22.86
2023-06-23T16:29:32.956Z,22.53
2023-06-23T16:32:00.629Z,22.54
2023-06-23T16:34:28.536Z,22.56
2023-06-23T16:36:56.108Z,22.29
2023-06-23T16:39:23.942Z,22.68
2023-06-23T16:41:53.515Z,22.75
2023-06-23T16:44:21.348Z,22.73
2023-06-23T16:46:49.039Z,22.92
2023-06-23T16:49:18.971Z,23.00
2023-06-23T16:51:46.997Z,23.11
2023-06-23T16:54:14.949Z,22.92
2023-06-23T16:56:42.499Z,22.35
2023-06-23T16:59:10.449Z,22.77
2023-06-23T17:01:38.236Z,22.52
2023-06-23T17:04:06.432Z,22.71
2023-06-23T17:06:34.388Z,22.37
2023-06-23T17:09:02.321Z,22.56
2023-06-23T17:11:29.822Z,22.26
2023-06-23T17:13:57.665Z,22.10
2023-06-23T17:16:26.426Z,22.05
2023-06-23T17:18:55.105Z,22.17
2023-06-23T17:21:22.661Z,22.43
2023-06-23T17:23:50.704Z,22.66
2023-06-23T17:26:18.218Z,22.71
2023-06-23T17:28:46.064Z,22.87
2023-06-23T17:31:13.959Z,22.95
2023-06-23T17:33:43.009Z,23.12
2023-06-23T17:36:10.496Z,23.33
2023-06-23T17:38:40.339Z,23.46
2023-06-23T17:41:08.146Z,23.68
2023-06-23T17:43:36.017Z,23.60
2023-06-23T17:46:04.945Z,23.54
2023-06-23T17:48:33.201Z,23.60
2023-06-23T17:51:00.729Z,23.40
2023-06-23T17:53:28.620Z,23.15
2023-06-23T17:55:56.595Z,22.96
2023-06-23T17:58:25.403Z,22.52
2023-06-23T18:00:53.011Z,22.44
2023-06-23T18:03:21.287Z,22.37
2023-06-23T18:05:49.433Z,22.05
2023-06-23T18:08:17.799Z,21.90
2023-06-23T18:10:47.350Z,21.92
2023-06-23T18:13:15.293Z,21.62
2023-06-23T18:15:42.823Z,21.55
2023-06-23T18:18:12.917Z,21.32
2023-06-23T18:20:40.576Z,21.27
2023-06-23T18:23:09.395Z,21.24
2023-06-23T18:25:36.933Z,21.12
2023-06-23T18:28:04.902Z,21.08
2023-06-23T18:30:32.890Z,21.12
2023-06-23T18:33:01.169Z,21.13
2023-06-23T18:35:28.795Z,21.01
2023-06-23T18:37:56.727Z,20.98
2023-06-23T18:40:24.436Z,20.96
2023-06-23T18:42:52.366Z,20.79
2023-06-23T18:45:21.450Z,20.69
2023-06-23T18:47:49.567Z,20.58
2023-06-23T18:50:17.135Z,20.45
2023-06-23T18:52:44.918Z,20.31
2023-06-23T18:55:12.548Z,20.20
2023-06-23T18:57:42.397Z,20.16
2023-06-23T19:00:10.578Z,20.04
2023-06-23T19:02:38.562Z,19.90
2023-06-23T19:05:06.509Z,19.84
2023-06-23T19:07:34.117Z,19.78
2023-06-23T19:10:02.383Z,19.62
2023-06-23T19:12:30.314Z,19.63
2023-06-23T19:14:58.386Z,19.52
2023-06-23T19:17:26.504Z,19.37
2023-06-23T19:19:54.509Z,19.30
2023-06-23T19:22:22.142Z,19.33
2023-06-23T19:24:50.133Z,19.30
2023-06-23T19:27:17.624Z,19.22
2023-06-23T19:29:45.523Z,19.26
2023-06-23T19:32:14.037Z,19.10
2023-06-23T19:34:41.880Z,19.05
2023-06-23T19:37:10.478Z,18.88
2023-06-23T19:39:47.346Z,18.77
2023-06-23T19:42:27.004Z,18.65
2023-06-23T19:44:54.810Z,18.61
2023-06-23T19:47:23.560Z,18.44
2023-06-23T19:49:51.488Z,18.45
2023-06-23T19:52:19.100Z,18.41
2023-06-23T19:54:46.886Z,18.34
2023-06-23T19:57:14.496Z,18.22
2023-06-23T19:59:42.358Z,18.24
2023-06-23T20:02:10.205Z,18.19
2023-06-23T20:04:38.102Z,18.16
2023-06-23T20:07:06.731Z,18.12
2023-06-23T20:09:34.811Z,18.04
2023-06-23T20:12:02.288Z,17.98
2023-06-23T20:14:30.463Z,17.82
2023-06-23T20:16:58.010Z,17.78
2023-06-23T20:19:26.790Z,17.84
2023-06-23T20:21:54.321Z,17.80
2023-06-23T20:24:22.267Z,17.83
2023-06-23T20:26:49.980Z,17.81
2023-06-23T20:29:19.794Z,17.88
2023-06-23T20:31:47.514Z,17.91
2023-06-23T20:34:15.458Z,17.85
2023-06-23T20:36:43.027Z,17.99
2023-06-23T20:39:11.247Z,17.91
2023-06-23T20:41:38.807Z,17.98
2023-06-23T20:44:06.722Z,17.99
2023-06-23T20:46:34.271Z,18.03
2023-06-23T20:49:02.232Z,18.06
2023-06-23T20:51:30.773Z,18.10
2023-06-23T20:53:58.699Z,18.28
2023-06-23T20:56:26.203Z,18.24
2023-06-23T20:58:54.215Z,18.36
2023-06-23T21:01:21.799Z,18.42
2023-06-23T21:03:49.712Z,18.58
2023-06-23T21:06:17.342Z,18.38
2023-06-23T21:08:45.748Z,18.33
2023-06-23T21:11:13.323Z,18.45
2023-06-23T21:13:41.272Z,18.35
2023-06-23T21:16:09.007Z,18.23
2023-06-23T21:18:37.930Z,18.22
2023-06-23T21:21:05.728Z,18.34
2023-06-23T21:23:33.529Z,18.33
2023-06-23T21:26:01.071Z,18.43
2023-06-23T21:28:29.418Z,18.39
2023-06-23T21:30:57.049Z,18.36
2023-06-23T21:33:24.819Z,18.20
2023-06-23T21:35:53.742Z,18.33
2023-06-23T21:38:21.728Z,18.40
2023-06-23T21:40:49.306Z,18.21
2023-06-23T21:43:17.107Z,18.41
2023-06-23T21:45:44.684Z,18.38
2023-06-23T21:48:12.545Z,18.33
2023-06-23T21:50:40.164Z,18.35
2023-06-23T21:53:07.993Z,18.45
2023-06-23T21:55:36.666Z,18.48
2023-06-23T21:58:08.027Z,18.42
2023-06-23T22:00:35.996Z,18.45
2023-06-23T22:03:05.251Z,18.33
2023-06-23T22:05:33.120Z,18.35
2023-06-23T22:08:00.935Z,18.48
2023-06-23T22:10:28.652Z,18.50
2023-06-23T22:12:59.100Z,18.28
2023-06-23T22:15:26.646Z,18.28
2023-06-23T22:17:54.564Z,18.31
2023-06-23T22:20:23.211Z,18.38
2023-06-23T22:22:50.982Z,18.33
2023-06-23T22:25:18.658Z,18.25
2023-06-23T22:27:46.525Z,18.29
2023-06-23T22:30:14.180Z,18.28
2023-06-23T22:32:42.173Z,18.11
2023-06-23T22:35:09.914Z,18.18
2023-06-23T22:37:38.272Z,18.18
2023-06-23T22:40:06.561Z,18.34
2023-06-23T22:42:34.406Z,18.05
2023-06-23T22:45:02.786Z,18.26
2023-06-23T22:47:33.276Z,18.20
2023-06-23T22:50:00.920Z,18.25
2023-06-23T22:52:31.351Z,18.36
2023-06-23T22:54:59.070Z,18.32
2023-06-23T22:57:27.042Z,18.37
2023-06-23T22:59:54.589Z,18.40
2023-06-23T23:02:22.811Z,18.48
2023-06-23T23:04:50.287Z,18.23
2023-06-23T23:07:18.247Z,18.26
2023-06-23T23:09:45.949Z,18.34
2023-06-23T23:12:13.838Z,18.35
2023-06-23T23:14:41.627Z,18.39
2023-06-23T23:17:09.610Z,18.48
2023-06-23T23:19:37.386Z,18.46
2023-06-23T23:22:06.883Z,18.44
2023-06-23T23:24:34.510Z,18.40
2023-06-23T23:27:02.372Z,18.37
2023-06-23T23:29:30.655Z,18.29
2023-06-23T23:32:02.587Z,18.19
2023-06-23T23:34:33.345Z,18.31
2023-06-23T23:37:10.531Z,18.33
2023-06-23T23:39:38.059Z,18.29
2023-06-23T23:42:06.250Z,18.25
2023-06-23T23:44:34.096Z,18.24
2023-06-23T23:47:01.928Z,18.05
2023-06-23T23:49:29.502Z,18.18
2023-06-23T23:51:58.005Z,18.06
2023-06-23T23:54:25.522Z,18.07
2023-06-23T23:56:53.456Z,18.07
2023-06-23T23:59:21.002Z,18.04
